createdAt,value
2023-01-22T00:01:51.322Z,44.50
2023-01-22T00:04:54.465Z,44.80
2023-01-22T00:07:57.624Z,44.10
2023-01-22T00:11:01.204Z,40.30
2023-01-22T00:14:04.506Z,39.70
2023-01-22T00:17:07.771Z,31.90
2023-01-22T00:20:12.552Z,32.00
2023-01-22T00:23:16.839Z,32.30
2023-01-22T00:26:21.050Z,30.90
2023-01-22T00:29:24.660Z,31.80
2023-01-22T00:32:27.933Z,28.50
2023-01-22T00:35:31.726Z,29.90
2023-01-22T00:38:35.319Z,30.70
2023-01-22T00:41:38.506Z,31.70
2023-01-22T00:44:41.905Z,31.50
2023-01-22T00:47:45.310Z,30.60
2023-01-22T00:50:49.149Z,32.60
2023-01-22T00:53:52.319Z,30.30
2023-01-22T00:56:55.504Z,34.40
2023-01-22T00:59:58.803Z,34.90
2023-01-22T01:03:20.671Z,33.90
2023-01-22T01:06:23.869Z,34.50
2023-01-22T01:09:27.268Z,34.10
2023-01-22T01:12:30.408Z,34.30
2023-01-22T01:15:34.872Z,32.80
2023-01-22T01:18:38.305Z,35.70
2023-01-22T01:21:41.482Z,35.80
2023-01-22T01:24:44.687Z,33.80
2023-01-22T01:27:47.953Z,34.10
2023-01-22T01:30:51.239Z,33.80
2023-01-22T01:33:54.544Z,34.40
2023-01-22T01:36:58.245Z,31.70
2023-01-22T01:40:01.437Z,32.10
2023-01-22T01:43:05.654Z,30.00
2023-01-22T01:46:23.452Z,31.90
2023-01-22T01:49:38.657Z,29.50
2023-01-22T01:52:42.370Z,30.90
2023-01-22T01:55:45.935Z,29.60
2023-01-22T01:58:53.235Z,29.40
2023-01-22T02:01:57.218Z,29.10
2023-01-22T02:05:00.653Z,28.90
2023-01-22T02:08:04.712Z,28.80
2023-01-22T02:11:08.714Z,28.40
2023-01-22T02:14:19.861Z,28.40
2023-01-22T02:17:23.007Z,28.00
2023-01-22T02:20:27.048Z,26.90
2023-01-22T02:23:32.298Z,27.20
2023-01-22T02:26:36.763Z,26.70
2023-01-22T02:29:40.100Z,26.70
2023-01-22T02:32:45.448Z,27.60
2023-01-22T02:35:49.673Z,25.90
2023-01-22T02:38:52.997Z,26.60
2023-01-22T02:41:57.613Z,24.50
2023-01-22T02:45:00.833Z,25.20
2023-01-22T02:48:04.176Z,24.50
2023-01-22T02:51:09.658Z,23.40
2023-01-22T02:54:13.030Z,22.40
2023-01-22T02:57:16.622Z,21.50
2023-01-22T03:00:21.188Z,21.40
2023-01-22T03:03:24.436Z,21.60
2023-01-22T03:06:29.666Z,20.30
2023-01-22T03:09:35.534Z,18.90
2023-01-22T03:12:57.884Z,17.80
2023-01-22T03:16:22.384Z,18.40
2023-01-22T03:19:45.518Z,17.10
2023-01-22T03:22:53.081Z,16.40
2023-01-22T03:25:56.957Z,17.10
2023-01-22T03:29:02.025Z,16.00
2023-01-22T03:32:06.285Z,13.50
2023-01-22T03:35:10.874Z,13.90
2023-01-22T03:38:25.506Z,12.60
2023-01-22T03:41:29.412Z,11.60
2023-01-22T03:44:33.007Z,10.50
2023-01-22T03:47:36.555Z,10.30
2023-01-22T03:50:48.085Z,9.70
2023-01-22T03:53:51.820Z,9.70
2023-01-22T03:56:55.059Z,8.70
2023-01-22T04:00:07.680Z,8.80
2023-01-22T04:03:15.735Z,9.00
2023-01-22T04:06:21.909Z,8.70
2023-01-22T04:09:25.070Z,9.90
2023-01-22T04:12:28.239Z,8.80
2023-01-22T04:15:32.027Z,8.50
2023-01-22T04:18:38.241Z,9.30
2023-01-22T04:22:00.124Z,9.00
2023-01-22T04:25:04.283Z,9.00
2023-01-22T04:28:08.650Z,9.20
2023-01-22T04:31:12.272Z,8.90
2023-01-22T04:34:33.849Z,6.60
2023-01-22T04:37:47.774Z,7.60
2023-01-22T04:40:51.115Z,6.80
2023-01-22T04:43:54.366Z,7.20
2023-01-22T04:46:59.977Z,7.50
2023-01-22T04:50:03.471Z,8.10
2023-01-22T04:53:06.898Z,8.00
2023-01-22T04:56:10.819Z,7.20
2023-01-22T04:59:14.802Z,7.70
2023-01-22T05:02:18.281Z,7.80
2023-01-22T05:05:21.630Z,7.30
2023-01-22T05:08:24.878Z,7.50
2023-01-22T05:11:28.202Z,8.10
2023-01-22T05:14:36.343Z,7.10
2023-01-22T05:17:39.618Z,7.70
2023-01-22T05:20:42.902Z,7.30
2023-01-22T05:23:47.426Z,7.40
2023-01-22T05:26:50.729Z,7.30
2023-01-22T05:30:13.200Z,7.50
2023-01-22T05:33:40.293Z,7.50
2023-01-22T05:36:46.101Z,7.70
2023-01-22T05:39:52.493Z,7.80
2023-01-22T05:42:55.986Z,8.20
2023-01-22T05:46:02.737Z,7.90
2023-01-22T05:49:34.798Z,8.70
2023-01-22T05:52:38.113Z,8.90
2023-01-22T05:55:41.351Z,10.50
2023-01-22T05:58:44.843Z,10.20
2023-01-22T06:01:48.739Z,10.50
2023-01-22T06:04:52.171Z,9.70
2023-01-22T06:07:59.362Z,9.40
2023-01-22T06:11:04.343Z,8.40
2023-01-22T06:14:07.536Z,9.50
2023-01-22T06:17:10.789Z,8.00
2023-01-22T06:20:30.091Z,7.70
2023-01-22T06:23:33.836Z,7.80
2023-01-22T06:26:37.118Z,8.00
2023-01-22T06:29:41.441Z,8.70
2023-01-22T06:32:44.701Z,8.50
2023-01-22T06:35:53.696Z,7.60
2023-01-22T06:38:57.468Z,7.20
2023-01-22T06:42:11.483Z,8.10
2023-01-22T06:45:15.264Z,7.90
2023-01-22T06:48:21.793Z,8.40
2023-01-22T06:51:25.836Z,7.60
2023-01-22T06:54:29.066Z,8.70
2023-01-22T06:57:32.245Z,8.10
2023-01-22T07:00:35.469Z,7.90
2023-01-22T07:03:38.818Z,8.50
2023-01-22T07:06:42.187Z,8.40
2023-01-22T07:09:45.335Z,8.20
2023-01-22T07:12:50.006Z,8.30
2023-01-22T07:15:53.213Z,8.40
2023-01-22T07:18:56.402Z,8.70
2023-01-22T07:21:59.632Z,8.10
2023-01-22T07:25:03.209Z,8.70
2023-01-22T07:28:07.489Z,8.20
2023-01-22T07:31:12.916Z,9.40
2023-01-22T07:34:16.119Z,9.20
2023-01-22T07:37:20.349Z,11.40
2023-01-22T07:40:24.607Z,11.10
2023-01-22T07:43:28.077Z,10.20
2023-01-22T07:46:31.327Z,11.10
2023-01-22T07:49:36.965Z,10.40
2023-01-22T07:52:40.177Z,9.50
2023-01-22T07:55:43.375Z,10.10
2023-01-22T07:58:47.106Z,9.20
2023-01-22T08:01:50.298Z,10.10
2023-01-22T08:04:53.527Z,8.30
2023-01-22T08:07:56.755Z,9.90
2023-01-22T08:11:00.401Z,9.10
2023-01-22T08:14:03.738Z,9.40
2023-01-22T08:17:07.010Z,10.20
2023-01-22T08:20:11.094Z,9.40
2023-01-22T08:23:14.417Z,10.40
2023-01-22T08:26:17.634Z,9.70
2023-01-22T08:29:20.960Z,9.80
2023-01-22T08:32:24.404Z,10.50
2023-01-22T08:35:27.665Z,9.50
2023-01-22T08:38:30.849Z,10.00
2023-01-22T08:41:34.038Z,10.30
2023-01-22T08:44:37.228Z,9.90
2023-01-22T08:47:40.412Z,10.50
2023-01-22T08:50:43.638Z,11.20
2023-01-22T08:53:46.872Z,10.10
2023-01-22T08:56:50.408Z,9.90
2023-01-22T09:00:01.018Z,10.70
2023-01-22T09:03:04.888Z,9.70
2023-01-22T09:06:08.108Z,9.90
2023-01-22T09:09:12.799Z,10.50
2023-01-22T09:12:16.156Z,10.10
2023-01-22T09:15:19.285Z,10.40
2023-01-22T09:18:22.531Z,10.50
2023-01-22T09:21:25.797Z,10.70
2023-01-22T09:24:28.957Z,11.00
2023-01-22T09:27:32.250Z,11.30
2023-01-22T09:30:39.395Z,11.10
2023-01-22T09:33:42.749Z,11.50
2023-01-22T09:36:46.015Z,12.00
2023-01-22T09:39:50.373Z,11.50
2023-01-22T09:43:06.979Z,11.90
2023-01-22T09:46:19.879Z,11.30
2023-01-22T09:49:38.130Z,15.70
2023-01-22T09:52:41.531Z,13.30
2023-01-22T09:55:52.391Z,13.30
2023-01-22T09:58:57.702Z,12.20
2023-01-22T10:02:14.587Z,12.20
2023-01-22T10:05:35.733Z,12.00
2023-01-22T10:08:52.524Z,11.10
2023-01-22T10:11:57.029Z,11.70
2023-01-22T10:15:00.584Z,12.10
2023-01-22T10:18:33.716Z,11.50
2023-01-22T10:21:47.034Z,11.30
2023-01-22T10:24:50.536Z,12.00
2023-01-22T10:28:00.048Z,12.20
2023-01-22T10:31:04.300Z,11.60
2023-01-22T10:34:16.766Z,11.20
2023-01-22T10:40:34.319Z,10.40
2023-01-22T10:43:39.284Z,11.00
2023-01-22T10:46:42.949Z,10.70
2023-01-22T10:50:01.410Z,11.30
2023-01-22T10:53:17.798Z,10.90
2023-01-22T10:56:33.147Z,11.30
2023-01-22T10:59:37.178Z,10.30
2023-01-22T11:02:51.224Z,10.90
2023-01-22T11:06:00.224Z,10.80
2023-01-22T11:09:16.016Z,11.20
2023-01-22T11:12:39.421Z,11.20
2023-01-22T11:15:54.461Z,10.30
2023-01-22T11:19:06.193Z,12.20
2023-01-22T11:22:22.267Z,9.50
2023-01-22T11:25:27.778Z,11.10
2023-01-22T11:28:41.691Z,9.90
2023-01-22T11:31:58.584Z,9.20
2023-01-22T11:35:18.589Z,10.20
2023-01-22T11:38:30.771Z,8.80
2023-01-22T11:41:40.770Z,8.90
2023-01-22T11:45:05.243Z,10.20
2023-01-22T11:48:25.746Z,8.70
2023-01-22T11:51:28.851Z,10.50
2023-01-22T11:54:44.342Z,9.70
2023-01-22T11:58:11.598Z,9.20
2023-01-22T12:01:27.817Z,9.20
2023-01-22T12:04:52.265Z,10.00
2023-01-22T12:08:01.105Z,9.60
2023-01-22T12:11:13.730Z,9.80
2023-01-22T12:15:01.996Z,10.30
2023-01-22T12:18:08.067Z,10.70
2023-01-22T12:21:48.606Z,9.40
2023-01-22T12:25:12.113Z,11.00
2023-01-22T12:28:32.451Z,10.10
2023-01-22T12:31:35.655Z,9.90
2023-01-22T12:35:08.921Z,11.60
2023-01-22T12:38:27.712Z,10.50
2023-01-22T12:41:44.411Z,10.80
2023-01-22T12:45:03.363Z,10.50
2023-01-22T12:48:12.536Z,10.10
2023-01-22T12:51:34.620Z,12.10
2023-01-22T12:54:37.889Z,11.00
2023-01-22T12:57:42.461Z,11.90
2023-01-22T13:00:45.693Z,12.40
2023-01-22T13:04:04.156Z,12.20
2023-01-22T13:07:22.079Z,12.20
2023-01-22T13:10:30.937Z,12.50
2023-01-22T13:13:44.913Z,12.00
2023-01-22T13:17:06.180Z,12.10
2023-01-22T13:20:17.779Z,12.50
2023-01-22T13:23:21.804Z,13.70
2023-01-22T13:26:28.136Z,12.50
2023-01-22T13:29:34.254Z,12.60
2023-01-22T13:32:37.440Z,12.90
2023-01-22T13:35:45.310Z,12.40
2023-01-22T13:38:54.179Z,12.10
2023-01-22T13:42:00.829Z,11.90
2023-01-22T13:45:04.450Z,12.10
2023-01-22T13:48:16.556Z,12.80
2023-01-22T13:51:21.806Z,11.90
2023-01-22T13:54:42.746Z,11.90
2023-01-22T13:57:51.625Z,11.60
2023-01-22T14:00:54.892Z,12.30
2023-01-22T14:04:24.378Z,12.50
2023-01-22T14:07:27.508Z,11.70
2023-01-22T14:10:30.641Z,11.70
2023-01-22T14:13:40.269Z,12.50
2023-01-22T14:16:44.366Z,12.30
2023-01-22T14:19:47.771Z,12.70
2023-01-22T14:22:51.333Z,11.20
2023-01-22T14:25:56.046Z,12.50
2023-01-22T14:28:59.300Z,12.40
2023-01-22T14:32:02.429Z,11.60
2023-01-22T14:35:05.759Z,12.00
2023-01-22T14:38:09.024Z,11.90
2023-01-22T14:41:12.513Z,12.20
2023-01-22T14:44:15.901Z,11.70
2023-01-22T14:47:21.983Z,12.80
2023-01-22T14:50:25.093Z,10.90
2023-01-22T14:53:31.276Z,12.00
2023-01-22T14:56:34.443Z,12.60
2023-01-22T14:59:38.175Z,11.70
2023-01-22T15:02:41.785Z,12.60
2023-01-22T15:05:45.521Z,12.10
2023-01-22T15:08:48.690Z,12.20
2023-01-22T15:11:51.782Z,12.10
2023-01-22T15:14:55.087Z,11.70
2023-01-22T15:17:58.297Z,11.70
2023-01-22T15:21:03.722Z,11.60
2023-01-22T15:24:07.734Z,11.80
2023-01-22T15:27:11.387Z,12.10
2023-01-22T15:30:15.241Z,11.90
2023-01-22T15:33:18.388Z,12.70
2023-01-22T15:36:22.049Z,11.70
2023-01-22T15:39:25.355Z,11.60
2023-01-22T15:42:28.559Z,12.20
2023-01-22T15:45:31.931Z,12.30
2023-01-22T15:48:38.126Z,12.80
2023-01-22T15:51:42.230Z,12.70
2023-01-22T15:54:46.372Z,12.60
2023-01-22T15:57:49.654Z,13.20
2023-01-22T16:00:53.173Z,13.00
2023-01-22T16:03:56.866Z,12.70
2023-01-22T16:07:00.027Z,12.50
2023-01-22T16:10:03.400Z,12.80
2023-01-22T16:13:06.694Z,13.70
2023-01-22T16:16:18.502Z,12.80
2023-01-22T16:19:21.847Z,13.30
2023-01-22T16:22:25.741Z,12.70
2023-01-22T16:25:28.951Z,12.50
2023-01-22T16:28:32.122Z,12.30
2023-01-22T16:31:36.367Z,12.80
2023-01-22T16:34:39.600Z,12.30
2023-01-22T16:37:44.387Z,13.30
2023-01-22T16:40:47.539Z,12.40
2023-01-22T16:44:01.904Z,13.10
2023-01-22T16:47:05.139Z,14.50
2023-01-22T16:50:10.288Z,13.10
2023-01-22T16:53:13.474Z,13.20
2023-01-22T16:56:16.727Z,13.90
2023-01-22T16:59:20.110Z,13.70
2023-01-22T17:02:23.596Z,13.60
2023-01-22T17:05:26.847Z,14.60
2023-01-22T17:08:30.050Z,14.50
2023-01-22T17:11:33.211Z,14.70
2023-01-22T17:14:37.821Z,14.70
2023-01-22T17:17:40.977Z,14.10
2023-01-22T17:20:57.444Z,15.50
2023-01-22T17:24:05.104Z,15.00
2023-01-22T17:27:08.368Z,15.80
2023-01-22T17:30:11.976Z,15.30
2023-01-22T17:33:15.209Z,15.00
2023-01-22T17:36:19.910Z,14.60
2023-01-22T17:39:24.346Z,14.40
2023-01-22T17:42:27.640Z,15.70
2023-01-22T17:45:30.886Z,14.70
2023-01-22T17:48:35.741Z,14.10
2023-01-22T17:51:39.023Z,15.30
2023-01-22T17:54:43.862Z,15.40
2023-01-22T17:57:47.060Z,14.80
2023-01-22T18:00:50.301Z,14.40
2023-01-22T18:03:56.804Z,13.30
2023-01-22T18:07:00.112Z,15.00
2023-01-22T18:10:03.944Z,14.10
2023-01-22T18:13:07.198Z,15.70
2023-01-22T18:16:13.885Z,14.50
2023-01-22T18:19:18.748Z,16.10
2023-01-22T18:22:22.532Z,14.20
2023-01-22T18:25:25.741Z,15.00
2023-01-22T18:28:28.892Z,15.60
2023-01-22T18:31:32.344Z,16.10
2023-01-22T18:34:35.655Z,16.70
2023-01-22T18:37:39.577Z,17.00
2023-01-22T18:40:42.992Z,17.30
2023-01-22T18:43:53.521Z,18.50
2023-01-22T18:46:59.352Z,17.60
2023-01-22T18:50:02.586Z,19.00
2023-01-22T18:53:07.163Z,17.60
2023-01-22T18:56:11.592Z,15.60
2023-01-22T18:59:14.847Z,15.80
2023-01-22T19:02:21.940Z,15.30
2023-01-22T19:05:27.330Z,16.00
2023-01-22T19:08:30.746Z,15.10
2023-01-22T19:11:37.846Z,15.10
2023-01-22T19:14:41.584Z,14.00
2023-01-22T19:17:45.509Z,14.50
2023-01-22T19:20:49.065Z,15.20
2023-01-22T19:23:59.149Z,15.60
2023-01-22T19:27:05.435Z,18.30
2023-01-22T19:30:10.380Z,18.20
2023-01-22T19:33:13.559Z,20.90
2023-01-22T19:36:19.684Z,20.80
2023-01-22T19:39:25.515Z,19.40
2023-01-22T19:42:28.894Z,19.50
2023-01-22T19:45:35.469Z,17.80
2023-01-22T19:48:39.945Z,17.50
2023-01-22T19:51:43.481Z,18.30
2023-01-22T19:54:49.331Z,18.90
2023-01-22T19:57:55.532Z,17.50
2023-01-22T20:00:58.902Z,16.20
2023-01-22T20:04:03.797Z,17.10
2023-01-22T20:07:07.403Z,16.30
2023-01-22T20:10:14.999Z,17.00
2023-01-22T20:13:18.307Z,18.40
2023-01-22T20:16:25.236Z,17.70
2023-01-22T20:19:29.248Z,18.20
2023-01-22T20:22:32.613Z,17.30
2023-01-22T20:25:38.632Z,16.60
2023-01-22T20:28:42.130Z,15.60
2023-01-22T20:31:45.383Z,15.10
2023-01-22T20:34:49.365Z,16.50
2023-01-22T20:37:53.059Z,15.50
2023-01-22T20:41:05.146Z,15.10
2023-01-22T20:44:09.200Z,15.40
2023-01-22T20:47:12.480Z,16.70
2023-01-22T20:50:15.819Z,16.60
2023-01-22T20:53:19.935Z,16.40
2023-01-22T20:56:30.472Z,17.00
2023-01-22T20:59:34.027Z,16.60
2023-01-22T21:02:37.709Z,17.60
2023-01-22T21:05:41.454Z,18.10
2023-01-22T21:08:49.147Z,18.00
2023-01-22T21:11:52.271Z,18.10
2023-01-22T21:14:55.681Z,15.00
2023-01-22T21:17:59.652Z,14.50
2023-01-22T21:21:05.242Z,13.90
2023-01-22T21:24:08.825Z,13.40
2023-01-22T21:27:12.417Z,13.80
2023-01-22T21:30:15.827Z,14.70
2023-01-22T21:33:19.149Z,13.60
2023-01-22T21:36:26.118Z,13.20
2023-01-22T21:39:30.198Z,13.60
2023-01-22T21:42:52.269Z,13.90
2023-01-22T21:46:14.016Z,9.90
2023-01-22T21:49:23.479Z,13.60
2023-01-22T21:52:26.699Z,14.30
2023-01-22T21:55:30.244Z,14.90
2023-01-22T21:58:33.628Z,14.40
2023-01-22T22:01:37.585Z,14.70
2023-01-22T22:04:40.944Z,14.20
2023-01-22T22:07:44.230Z,15.00
2023-01-22T22:10:51.335Z,14.20
2023-01-22T22:13:54.964Z,14.50
2023-01-22T22:16:58.237Z,14.00
2023-01-22T22:20:01.424Z,14.10
2023-01-22T22:23:04.685Z,12.90
2023-01-22T22:26:10.232Z,13.40
2023-01-22T22:29:13.437Z,13.80
2023-01-22T22:32:16.665Z,13.70
2023-01-22T22:35:19.993Z,13.00
2023-01-22T22:38:23.193Z,13.10
2023-01-22T22:41:29.494Z,12.80
2023-01-22T22:44:32.764Z,13.70
2023-01-22T22:47:36.572Z,13.50
2023-01-22T22:50:42.964Z,12.80
2023-01-22T22:53:47.722Z,14.10
2023-01-22T22:56:51.706Z,18.60
2023-01-22T22:59:54.867Z,17.10
2023-01-22T23:02:58.072Z,16.90
2023-01-22T23:06:19.253Z,20.30
2023-01-22T23:09:23.000Z,18.50
2023-01-22T23:12:26.184Z,18.50
2023-01-22T23:15:30.856Z,18.50
2023-01-22T23:18:35.790Z,16.10
2023-01-22T23:21:42.165Z,17.20
2023-01-22T23:24:46.604Z,17.30
2023-01-22T23:27:49.985Z,16.40
2023-01-22T23:30:53.262Z,16.10
2023-01-22T23:33:57.776Z,15.70
2023-01-22T23:37:00.985Z,15.40
2023-01-22T23:40:04.776Z,14.60
2023-01-22T23:43:08.190Z,16.10
2023-01-22T23:46:14.729Z,14.00
2023-01-22T23:49:17.953Z,14.80
2023-01-22T23:52:21.215Z,14.10
2023-01-22T23:55:24.535Z,14.70
2023-01-22T23:58:28.478Z,14.10
